createdAt,value
2019-05-22T00:00:33.958Z,15.97
2019-05-22T00:03:04.213Z,19.47
2019-05-22T00:05:33.997Z,17.40
2019-05-22T00:08:04.300Z,16.03
2019-05-22T00:10:34.605Z,17.73
2019-05-22T00:13:06.837Z,17.87
2019-05-22T00:15:38.632Z,21.33
2019-05-22T00:18:09.501Z,19.17
2019-05-22T00:20:39.187Z,20.17
2019-05-22T00:23:10.501Z,21.07
2019-05-22T00:25:40.919Z,20.40
2019-05-22T00:28:10.349Z,19.30
2019-05-22T00:30:42.074Z,21.30
2019-05-22T00:33:11.792Z,21.10
2019-05-22T00:35:42.357Z,21.17
2019-05-22T00:38:11.978Z,19.80
2019-05-22T00:40:45.207Z,19.90
2019-05-22T00:43:16.903Z,22.07
2019-05-22T00:45:49.041Z,22.70
2019-05-22T00:48:21.197Z,22.50
2019-05-22T00:51:12.509Z,22.10
2019-05-22T00:53:58.396Z,20.77
2019-05-22T00:56:46.774Z,21.93
2019-05-22T00:59:26.766Z,21.10
2019-05-22T01:01:59.464Z,23.00
2019-05-22T01:04:38.279Z,20.07
2019-05-22T01:07:17.560Z,19.73
2019-05-22T01:09:48.339Z,19.97
2019-05-22T01:12:21.771Z,20.77
2019-05-22T01:14:53.336Z,19.70
2019-05-22T01:17:24.082Z,21.90
2019-05-22T01:19:54.668Z,20.63
2019-05-22T01:22:26.223Z,20.77
2019-05-22T01:24:56.676Z,21.90
2019-05-22T01:27:26.418Z,21.87
2019-05-22T01:29:57.544Z,20.40
2019-05-22T01:32:37.881Z,20.83
2019-05-22T01:35:09.005Z,20.77
2019-05-22T01:37:39.525Z,20.83
2019-05-22T01:40:21.955Z,20.50
2019-05-22T01:42:53.569Z,20.50
2019-05-22T01:45:24.703Z,19.20
2019-05-22T01:48:26.743Z,19.90
2019-05-22T01:50:58.675Z,19.57
2019-05-22T01:53:36.149Z,19.37
2019-05-22T01:56:06.506Z,18.03
2019-05-22T01:58:37.353Z,19.80
2019-05-22T02:01:26.476Z,20.00
2019-05-22T02:03:56.643Z,19.63
2019-05-22T02:06:26.513Z,19.03
2019-05-22T02:09:23.728Z,14.73
2019-05-22T02:11:57.115Z,14.70
2019-05-22T02:14:27.602Z,13.60
2019-05-22T02:16:57.956Z,14.33
2019-05-22T02:19:28.216Z,14.37
2019-05-22T02:21:56.940Z,14.30
2019-05-22T02:24:26.317Z,13.20
2019-05-22T02:26:55.507Z,15.57
2019-05-22T02:29:26.139Z,15.60
2019-05-22T02:31:57.817Z,14.60
2019-05-22T02:34:28.484Z,13.93
2019-05-22T02:36:58.387Z,14.70
2019-05-22T02:39:30.338Z,13.97
2019-05-22T02:42:06.368Z,14.30
2019-05-22T02:44:37.555Z,13.53
2019-05-22T02:47:18.987Z,12.73
2019-05-22T02:49:39.550Z,15.93
2019-05-22T02:52:10.188Z,14.63
2019-05-22T02:54:39.263Z,14.10
2019-05-22T02:57:11.514Z,14.37
2019-05-22T02:59:43.073Z,13.43
2019-05-22T03:02:15.739Z,13.77
2019-05-22T03:05:03.613Z,13.93
2019-05-22T03:07:33.217Z,12.93
2019-05-22T03:10:03.407Z,14.90
2019-05-22T03:12:36.193Z,14.53
2019-05-22T03:15:08.702Z,13.20
2019-05-22T03:17:39.053Z,12.63
2019-05-22T03:20:12.373Z,14.10
2019-05-22T03:23:14.460Z,15.10
2019-05-22T03:25:44.566Z,14.70
2019-05-22T03:28:13.752Z,13.33
2019-05-22T03:30:44.100Z,13.20
2019-05-22T03:33:13.513Z,13.00
2019-05-22T03:35:46.801Z,13.53
2019-05-22T03:38:17.693Z,12.33
2019-05-22T03:40:47.861Z,13.77
2019-05-22T03:43:22.305Z,13.47
2019-05-22T03:45:52.087Z,13.77
2019-05-22T03:48:22.257Z,13.10
2019-05-22T03:50:53.121Z,14.77
2019-05-22T03:53:22.996Z,14.70
2019-05-22T03:55:52.068Z,15.50
2019-05-22T03:58:21.925Z,14.80
2019-05-22T04:00:54.720Z,16.40
2019-05-22T04:03:26.190Z,16.00
2019-05-22T04:05:55.901Z,15.33
2019-05-22T04:08:26.403Z,16.50
2019-05-22T04:10:59.252Z,17.20
2019-05-22T04:13:28.804Z,16.33
2019-05-22T04:15:58.478Z,16.70
2019-05-22T04:18:28.377Z,15.90
2019-05-22T04:20:58.438Z,16.90
2019-05-22T04:23:27.320Z,16.80
2019-05-22T04:25:57.613Z,15.83
2019-05-22T04:28:28.834Z,16.00
2019-05-22T04:30:59.927Z,17.10
2019-05-22T04:33:30.604Z,16.90
2019-05-22T04:36:01.456Z,16.83
2019-05-22T04:38:30.511Z,18.60
2019-05-22T04:41:02.136Z,18.00
2019-05-22T04:43:34.058Z,18.00
2019-05-22T04:46:05.273Z,18.77
2019-05-22T04:48:36.502Z,18.07
2019-05-22T04:51:25.105Z,18.90
2019-05-22T04:53:54.825Z,18.03
2019-05-22T04:56:24.215Z,17.07
2019-05-22T04:58:54.492Z,18.17
2019-05-22T05:01:23.761Z,16.83
2019-05-22T05:03:53.778Z,17.10
2019-05-22T05:06:26.179Z,15.53
2019-05-22T05:08:56.376Z,15.67
2019-05-22T05:11:26.148Z,15.93
2019-05-22T05:13:55.559Z,18.30
2019-05-22T05:16:24.575Z,15.33
2019-05-22T05:18:53.664Z,15.97
2019-05-22T05:21:23.376Z,15.20
2019-05-22T05:23:52.416Z,14.60
2019-05-22T05:26:22.869Z,15.20
2019-05-22T05:28:51.795Z,16.43
2019-05-22T05:31:27.776Z,16.27
2019-05-22T05:34:18.088Z,15.40
2019-05-22T05:36:47.480Z,17.20
2019-05-22T05:40:07.928Z,16.30
2019-05-22T05:42:37.649Z,15.33
2019-05-22T05:45:12.688Z,16.83
2019-05-22T05:47:40.727Z,16.00
2019-05-22T05:50:11.738Z,15.30
2019-05-22T05:52:43.135Z,17.03
2019-05-22T05:55:12.838Z,27.10
2019-05-22T05:58:32.779Z,15.63
2019-05-22T06:01:16.848Z,13.87
2019-05-22T06:03:46.112Z,14.63
2019-05-22T06:07:12.455Z,14.13
2019-05-22T06:09:41.751Z,13.43
2019-05-22T06:12:13.272Z,14.37
2019-05-22T06:14:42.081Z,14.50
2019-05-22T06:17:52.550Z,13.00
2019-05-22T06:20:25.079Z,13.37
2019-05-22T06:23:32.544Z,14.67
2019-05-22T06:26:02.540Z,13.73
2019-05-22T06:28:35.392Z,13.17
2019-05-22T06:31:05.569Z,13.10
2019-05-22T06:33:35.784Z,12.40
2019-05-22T06:36:07.389Z,11.03
2019-05-22T06:39:02.928Z,11.07
2019-05-22T06:41:38.108Z,11.80
2019-05-22T06:44:42.658Z,11.03
2019-05-22T06:47:15.939Z,9.00
2019-05-22T06:49:53.339Z,9.17
2019-05-22T06:52:23.050Z,9.83
2019-05-22T06:54:52.594Z,9.13
2019-05-22T06:57:30.780Z,9.00
2019-05-22T07:00:13.111Z,8.93
2019-05-22T07:02:34.580Z,9.57
2019-05-22T07:05:07.113Z,8.90
2019-05-22T07:07:36.035Z,9.87
2019-05-22T07:10:06.852Z,8.60
2019-05-22T07:12:35.913Z,9.20
2019-05-22T07:15:50.796Z,8.90
2019-05-22T07:18:22.476Z,8.20
2019-05-22T07:20:54.447Z,9.33
2019-05-22T07:23:26.008Z,7.33
2019-05-22T07:25:55.669Z,6.70
2019-05-22T07:28:25.249Z,6.90
2019-05-22T07:30:55.969Z,7.00
2019-05-22T07:33:25.745Z,6.17
2019-05-22T07:36:09.533Z,7.07
2019-05-22T07:38:27.321Z,7.10
2019-05-22T07:40:56.405Z,6.00
2019-05-22T07:43:25.533Z,5.23
2019-05-22T07:45:57.254Z,5.67
2019-05-22T07:48:28.829Z,5.00
2019-05-22T07:50:58.049Z,5.83
2019-05-22T07:53:28.584Z,5.17
2019-05-22T07:55:59.377Z,4.83
2019-05-22T07:58:29.698Z,5.30
2019-05-22T08:01:01.423Z,5.83
2019-05-22T08:03:31.862Z,6.57
2019-05-22T08:06:01.299Z,6.57
2019-05-22T08:08:33.012Z,7.90
2019-05-22T08:11:01.873Z,7.57
2019-05-22T08:13:32.397Z,7.13
2019-05-22T08:16:02.235Z,6.50
2019-05-22T08:18:33.791Z,7.47
2019-05-22T08:21:02.659Z,5.50
2019-05-22T08:23:33.428Z,5.80
2019-05-22T08:26:02.341Z,5.30
2019-05-22T08:28:33.043Z,5.73
2019-05-22T08:31:04.185Z,6.40
2019-05-22T08:33:35.061Z,5.97
2019-05-22T08:36:04.717Z,5.33
2019-05-22T08:38:34.707Z,6.30
2019-05-22T08:41:05.733Z,5.67
2019-05-22T08:43:56.104Z,6.37
2019-05-22T08:46:07.461Z,6.03
2019-05-22T08:48:39.032Z,7.13
2019-05-22T08:51:09.488Z,5.90
2019-05-22T08:53:47.444Z,5.30
2019-05-22T08:56:09.657Z,5.00
2019-05-22T08:58:40.274Z,5.23
2019-05-22T09:01:10.891Z,4.77
2019-05-22T09:03:40.010Z,5.50
2019-05-22T09:06:09.633Z,5.00
2019-05-22T09:08:38.435Z,5.43
2019-05-22T09:11:07.712Z,5.20
2019-05-22T09:13:36.536Z,5.27
2019-05-22T09:16:06.009Z,4.63
2019-05-22T09:18:35.246Z,4.70
2019-05-22T09:21:04.245Z,4.80
2019-05-22T09:23:34.276Z,5.27
2019-05-22T09:26:03.503Z,5.13
2019-05-22T09:28:32.506Z,5.60
2019-05-22T09:31:01.518Z,6.10
2019-05-22T09:33:31.097Z,5.97
2019-05-22T09:36:00.408Z,6.23
2019-05-22T09:38:31.039Z,7.33
2019-05-22T09:41:00.872Z,6.77
2019-05-22T09:43:30.408Z,6.87
2019-05-22T09:45:59.360Z,6.97
2019-05-22T09:48:28.425Z,7.90
2019-05-22T09:50:58.961Z,7.97
2019-05-22T09:53:28.436Z,9.40
2019-05-22T09:55:57.224Z,9.20
2019-05-22T09:58:26.217Z,8.83
2019-05-22T10:00:55.243Z,9.50
2019-05-22T10:03:24.470Z,9.37
2019-05-22T10:05:53.431Z,10.27
2019-05-22T10:08:22.513Z,11.57
2019-05-22T10:10:51.316Z,12.60
2019-05-22T10:13:20.621Z,13.70
2019-05-22T10:15:49.335Z,12.87
2019-05-22T10:18:18.393Z,14.07
2019-05-22T10:20:47.928Z,14.80
2019-05-22T10:23:18.248Z,15.60
2019-05-22T10:25:47.524Z,14.13
2019-05-22T10:28:17.024Z,14.20
2019-05-22T10:30:46.187Z,14.27
2019-05-22T10:33:15.259Z,12.13
2019-05-22T10:35:44.016Z,14.83
2019-05-22T10:38:13.129Z,13.53
2019-05-22T10:40:41.910Z,14.50
2019-05-22T10:43:10.740Z,14.00
2019-05-22T10:45:39.542Z,13.17
2019-05-22T10:48:08.553Z,15.37
2019-05-22T10:50:37.838Z,14.17
2019-05-22T10:53:07.648Z,15.60
2019-05-22T10:55:37.376Z,14.20
2019-05-22T10:58:06.361Z,15.37
2019-05-22T11:00:35.692Z,14.13
2019-05-22T11:03:05.431Z,13.00
2019-05-22T11:05:34.347Z,13.00
2019-05-22T11:08:04.316Z,13.93
2019-05-22T11:10:33.700Z,14.30
2019-05-22T11:13:03.243Z,15.20
2019-05-22T11:15:33.579Z,12.53
2019-05-22T11:18:03.214Z,15.00
2019-05-22T11:20:33.464Z,14.90
2019-05-22T11:23:02.913Z,16.50
2019-05-22T11:25:31.669Z,15.20
2019-05-22T11:28:00.860Z,13.87
2019-05-22T11:30:30.693Z,12.90
2019-05-22T11:33:01.524Z,13.60
2019-05-22T11:35:31.852Z,12.70
2019-05-22T11:38:00.562Z,14.17
2019-05-22T11:40:29.465Z,13.40
2019-05-22T11:42:58.929Z,13.33
2019-05-22T11:45:29.821Z,13.40
2019-05-22T11:47:59.083Z,14.13
2019-05-22T11:50:29.908Z,13.40
2019-05-22T11:52:59.131Z,15.00
2019-05-22T11:55:43.667Z,12.93
2019-05-22T11:57:59.057Z,14.57
2019-05-22T12:00:28.822Z,15.23
2019-05-22T12:02:59.670Z,13.83
2019-05-22T12:05:28.872Z,14.37
2019-05-22T12:07:58.025Z,14.50
2019-05-22T12:10:27.410Z,12.90
2019-05-22T12:12:56.712Z,13.87
2019-05-22T12:15:29.569Z,17.67
2019-05-22T12:17:58.716Z,16.07
2019-05-22T12:20:29.266Z,14.43
2019-05-22T12:22:58.268Z,13.97
2019-05-22T12:25:27.671Z,15.90
2019-05-22T12:27:57.153Z,13.53
2019-05-22T12:30:26.801Z,14.53
2019-05-22T12:32:56.724Z,14.57
2019-05-22T12:35:26.666Z,14.03
2019-05-22T12:37:56.348Z,15.83
2019-05-22T12:40:26.945Z,15.70
2019-05-22T12:42:55.657Z,12.70
2019-05-22T12:45:27.632Z,14.10
2019-05-22T12:47:57.582Z,14.57
2019-05-22T12:50:28.976Z,14.53
2019-05-22T12:52:58.593Z,14.10
2019-05-22T12:55:27.926Z,13.87
2019-05-22T12:57:56.955Z,12.30
2019-05-22T13:00:28.608Z,13.30
2019-05-22T13:03:00.088Z,15.00
2019-05-22T13:05:30.244Z,12.33
2019-05-22T13:07:59.191Z,12.83
2019-05-22T13:10:28.576Z,14.53
2019-05-22T13:12:57.835Z,14.27
2019-05-22T13:15:27.854Z,15.83
2019-05-22T13:17:59.474Z,14.73
2019-05-22T13:20:42.633Z,12.97
2019-05-22T13:23:04.457Z,13.20
2019-05-22T13:25:36.890Z,13.27
2019-05-22T13:28:06.852Z,13.33
2019-05-22T13:30:39.050Z,12.57
2019-05-22T13:33:11.204Z,12.00
2019-05-22T13:35:40.771Z,13.10
2019-05-22T13:38:09.801Z,12.00
2019-05-22T13:40:39.453Z,14.83
2019-05-22T13:43:08.520Z,12.80
2019-05-22T13:45:37.397Z,11.77
2019-05-22T13:48:06.900Z,14.17
2019-05-22T13:50:36.460Z,12.20
2019-05-22T13:53:06.357Z,14.07
2019-05-22T13:55:35.840Z,17.17
2019-05-22T13:58:05.784Z,19.70
2019-05-22T14:00:36.120Z,11.23
2019-05-22T14:03:05.419Z,12.17
2019-05-22T14:05:36.989Z,11.43
2019-05-22T14:08:06.671Z,12.70
2019-05-22T14:10:36.416Z,12.40
2019-05-22T14:13:05.980Z,12.20
2019-05-22T14:15:48.718Z,10.97
2019-05-22T14:18:06.508Z,12.33
2019-05-22T14:20:36.709Z,13.70
2019-05-22T14:23:05.769Z,14.40
2019-05-22T14:25:35.294Z,15.10
2019-05-22T14:28:04.865Z,14.10
2019-05-22T14:30:34.383Z,13.53
2019-05-22T14:33:05.098Z,14.37
2019-05-22T14:35:47.667Z,14.13
2019-05-22T14:38:09.859Z,14.77
2019-05-22T14:40:39.165Z,14.13
2019-05-22T14:43:08.451Z,14.53
2019-05-22T14:45:38.216Z,14.37
2019-05-22T14:48:07.524Z,15.07
2019-05-22T14:50:36.770Z,14.63
2019-05-22T14:53:06.273Z,14.70
2019-05-22T14:55:37.036Z,12.90
2019-05-22T14:58:06.609Z,13.80
2019-05-22T15:00:36.401Z,14.77
2019-05-22T15:03:06.700Z,19.87
2019-05-22T15:05:35.793Z,13.70
2019-05-22T15:08:06.398Z,13.80
2019-05-22T15:10:36.385Z,14.10
2019-05-22T15:13:06.153Z,14.40
2019-05-22T15:15:39.952Z,11.73
2019-05-22T15:18:06.541Z,11.97
2019-05-22T15:20:42.074Z,12.57
2019-05-22T15:23:11.407Z,11.67
2019-05-22T15:25:41.478Z,11.97
2019-05-22T15:28:10.373Z,12.37
2019-05-22T15:30:39.741Z,12.60
2019-05-22T15:33:09.691Z,12.30
2019-05-22T15:35:38.521Z,13.07
2019-05-22T15:38:10.470Z,11.50
2019-05-22T15:40:39.364Z,10.00
2019-05-22T15:43:10.989Z,10.10
2019-05-22T15:45:42.296Z,9.70
2019-05-22T15:48:17.876Z,9.90
2019-05-22T15:50:47.836Z,10.37
2019-05-22T15:53:17.040Z,10.43
2019-05-22T15:55:47.517Z,10.27
2019-05-22T15:58:18.168Z,9.20
2019-05-22T16:00:48.132Z,9.03
2019-05-22T16:03:22.593Z,9.17
2019-05-22T16:05:53.525Z,8.60
2019-05-22T16:08:22.887Z,15.50
2019-05-22T16:10:52.953Z,9.70
2019-05-22T16:13:24.530Z,7.77
2019-05-22T16:15:55.570Z,9.10
2019-05-22T16:18:28.325Z,8.83
2019-05-22T16:21:01.011Z,8.43
2019-05-22T16:23:33.236Z,8.23
2019-05-22T16:26:03.298Z,8.40
2019-05-22T16:28:36.035Z,7.63
2019-05-22T16:31:06.936Z,8.97
2019-05-22T16:33:36.973Z,8.40
2019-05-22T16:36:06.364Z,9.10
2019-05-22T16:38:37.480Z,8.23
2019-05-22T16:41:06.632Z,9.73
2019-05-22T16:43:49.133Z,9.10
2019-05-22T16:46:09.402Z,8.57
2019-05-22T16:48:39.830Z,9.33
2019-05-22T16:51:11.646Z,8.50
2019-05-22T16:53:46.846Z,8.87
2019-05-22T16:56:17.206Z,9.60
2019-05-22T16:58:46.426Z,8.53
2019-05-22T17:01:18.473Z,8.90
2019-05-22T17:03:50.885Z,8.50
2019-05-22T17:06:20.766Z,9.50
2019-05-22T17:08:50.018Z,8.43
2019-05-22T17:11:19.569Z,9.27
2019-05-22T17:13:49.047Z,11.33
2019-05-22T17:16:18.646Z,8.67
2019-05-22T17:18:48.629Z,9.90
2019-05-22T17:21:18.944Z,9.03
2019-05-22T17:23:49.181Z,10.00
2019-05-22T17:26:18.792Z,9.30
2019-05-22T17:28:49.093Z,8.87
2019-05-22T17:31:19.059Z,8.43
2019-05-22T17:33:48.453Z,9.03
2019-05-22T17:36:18.784Z,9.17
2019-05-22T17:38:47.650Z,9.47
2019-05-22T17:41:16.745Z,9.40
2019-05-22T17:43:46.188Z,9.53
2019-05-22T17:46:16.842Z,9.17
2019-05-22T17:48:46.200Z,8.97
2019-05-22T17:51:16.008Z,8.13
2019-05-22T17:53:45.267Z,8.50
2019-05-22T17:56:14.680Z,7.70
2019-05-22T17:58:43.861Z,8.27
2019-05-22T18:01:13.254Z,8.03
2019-05-22T18:03:42.297Z,8.60
2019-05-22T18:06:12.405Z,7.93
2019-05-22T18:08:41.574Z,21.90
2019-05-22T18:11:10.697Z,7.37
2019-05-22T18:14:00.055Z,7.93
2019-05-22T18:16:29.689Z,6.93
2019-05-22T18:19:00.319Z,7.13
2019-05-22T18:21:29.728Z,7.33
2019-05-22T18:23:58.689Z,7.63
2019-05-22T18:26:28.723Z,6.93
2019-05-22T18:28:57.672Z,6.50
2019-05-22T18:31:26.565Z,8.23
2019-05-22T18:33:55.590Z,7.07
2019-05-22T18:36:24.552Z,7.30
2019-05-22T18:38:53.765Z,8.43
2019-05-22T18:41:22.734Z,7.90
2019-05-22T18:43:52.009Z,8.00
2019-05-22T18:46:22.461Z,7.77
2019-05-22T18:48:51.243Z,7.63
2019-05-22T18:51:20.294Z,8.10
2019-05-22T18:53:49.104Z,7.87
2019-05-22T18:56:18.101Z,8.00
2019-05-22T18:58:47.328Z,7.60
2019-05-22T19:01:16.538Z,7.60
2019-05-22T19:03:45.461Z,8.23
2019-05-22T19:06:14.329Z,10.00
2019-05-22T19:08:43.079Z,9.73
2019-05-22T19:11:11.774Z,7.93
2019-05-22T19:13:40.565Z,7.30
2019-05-22T19:16:10.339Z,7.77
2019-05-22T19:18:39.343Z,7.87
2019-05-22T19:21:08.380Z,8.30
2019-05-22T19:23:37.101Z,9.80
2019-05-22T19:26:06.217Z,10.40
2019-05-22T19:28:43.470Z,9.70
2019-05-22T19:31:07.432Z,9.47
2019-05-22T19:33:36.508Z,10.30
2019-05-22T19:36:05.666Z,11.50
2019-05-22T19:38:34.913Z,10.60
2019-05-22T19:41:04.062Z,11.10
2019-05-22T19:43:33.582Z,12.00
2019-05-22T19:46:03.192Z,11.60
2019-05-22T19:48:32.186Z,12.10
2019-05-22T19:51:04.675Z,12.07
2019-05-22T19:53:33.560Z,9.80
2019-05-22T19:56:02.368Z,10.90
2019-05-22T19:58:31.833Z,11.57
2019-05-22T20:01:01.204Z,9.90
2019-05-22T20:03:30.456Z,11.00
2019-05-22T20:06:00.253Z,9.10
2019-05-22T20:08:29.441Z,10.10
2019-05-22T20:10:58.651Z,10.13
2019-05-22T20:13:27.679Z,9.70
2019-05-22T20:15:56.649Z,10.70
2019-05-22T20:18:25.724Z,10.07
2019-05-22T20:20:54.928Z,10.80
2019-05-22T20:23:35.598Z,10.10
2019-05-22T20:25:54.610Z,10.30
2019-05-22T20:28:24.048Z,10.20
2019-05-22T20:30:53.653Z,11.50
2019-05-22T20:33:22.475Z,10.83
2019-05-22T20:35:51.793Z,10.73
2019-05-22T20:38:21.240Z,11.20
2019-05-22T20:40:51.892Z,10.73
2019-05-22T20:43:21.671Z,12.13
2019-05-22T20:45:50.559Z,10.10
2019-05-22T20:48:27.880Z,10.63
2019-05-22T20:51:01.574Z,10.53
2019-05-22T20:53:33.218Z,10.37
2019-05-22T20:56:07.216Z,9.77
2019-05-22T20:58:36.987Z,11.03
2019-05-22T21:01:07.728Z,11.00
2019-05-22T21:03:37.157Z,11.00
2019-05-22T21:06:08.318Z,11.90
2019-05-22T21:08:37.996Z,11.60
2019-05-22T21:11:08.608Z,11.27
2019-05-22T21:13:37.876Z,12.30
2019-05-22T21:16:07.438Z,11.20
2019-05-22T21:18:45.991Z,11.53
2019-05-22T21:21:37.916Z,11.10
2019-05-22T21:24:11.883Z,11.80
2019-05-22T21:26:39.170Z,10.90
2019-05-22T21:29:08.189Z,11.40
2019-05-22T21:31:37.073Z,9.90
2019-05-22T21:34:06.948Z,10.50
2019-05-22T21:36:37.756Z,13.40
2019-05-22T21:39:11.644Z,10.63
2019-05-22T21:41:40.776Z,11.10
2019-05-22T21:44:10.532Z,46.20
2019-05-22T21:46:39.612Z,41.47
2019-05-22T21:49:09.326Z,14.30
2019-05-22T21:51:38.705Z,15.20
2019-05-22T21:54:08.561Z,14.43
2019-05-22T21:56:44.936Z,13.43
2019-05-22T21:59:13.827Z,14.23
2019-05-22T22:01:59.203Z,12.40
2019-05-22T22:04:34.908Z,12.30
2019-05-22T22:07:05.994Z,11.17
2019-05-22T22:09:34.801Z,11.00
2019-05-22T22:12:04.947Z,11.50
2019-05-22T22:14:34.388Z,11.50
2019-05-22T22:17:03.837Z,11.30
2019-05-22T22:19:32.709Z,11.53
2019-05-22T22:22:01.788Z,10.80
2019-05-22T22:24:30.937Z,11.80
2019-05-22T22:27:01.245Z,11.20
2019-05-22T22:29:30.291Z,12.13
2019-05-22T22:32:01.356Z,11.40
2019-05-22T22:34:46.373Z,12.07
2019-05-22T22:37:16.315Z,11.63
2019-05-22T22:39:49.697Z,12.20
2019-05-22T22:42:19.655Z,12.43
2019-05-22T22:44:52.471Z,11.63
2019-05-22T22:47:26.575Z,12.67
2019-05-22T22:49:57.604Z,10.80
2019-05-22T22:52:27.576Z,12.07
2019-05-22T22:54:58.236Z,12.77
2019-05-22T22:57:27.309Z,12.87
2019-05-22T22:59:57.342Z,11.87
2019-05-22T23:02:30.165Z,12.33
2019-05-22T23:04:59.463Z,12.80
2019-05-22T23:07:31.691Z,13.17
2019-05-22T23:10:01.732Z,13.07
2019-05-22T23:12:30.771Z,12.60
2019-05-22T23:15:01.684Z,12.73
2019-05-22T23:17:30.981Z,14.00
2019-05-22T23:19:58.629Z,14.60
2019-05-22T23:22:28.609Z,13.60
2019-05-22T23:25:00.249Z,13.70
2019-05-22T23:27:31.320Z,12.10
2019-05-22T23:30:01.068Z,12.40
2019-05-22T23:32:31.623Z,13.40
2019-05-22T23:35:00.711Z,13.50
2019-05-22T23:37:30.359Z,13.97
2019-05-22T23:40:18.453Z,13.60
2019-05-22T23:42:48.658Z,13.20
2019-05-22T23:45:20.407Z,12.40
2019-05-22T23:48:03.568Z,14.13
2019-05-22T23:50:35.128Z,14.30
2019-05-22T23:53:04.917Z,13.40
2019-05-22T23:55:33.871Z,12.47
2019-05-22T23:58:03.058Z,14.77
